Time;durP1;ratioP1;P1;durP2;ratioP2;P2;SDS_P1;SDS_P2;PMS_P1;PMS_P2;Temp;Humidity;BMP_temperature;BMP_pressure;BME280_temperature;BME280_humidity;BME280_pressure;Samples;Min_cycle;Max_cycle;Signal;HPM_P1;HPM_P2
2021/10/21 00:00:36;;;;;;;9.65;7.70;;;;;;;17.37;42.03;99494.94;1742260;81;21070;-60
2021/10/21 00:03:02;;;;;;;10.23;8.10;;;;;;;17.37;42.04;99490.91;1741772;81;23281;-59
2021/10/21 00:05:31;;;;;;;8.15;7.25;;;;;;;17.36;42.05;99493.28;1743385;82;21003;-59
2021/10/21 00:07:57;;;;;;;10.23;7.42;;;;;;;17.36;42.07;99487.91;1743541;82;21006;-60
2021/10/21 00:10:23;;;;;;;8.80;7.53;;;;;;;17.36;42.07;99493.81;1743790;82;21034;-60
2021/10/21 00:12:49;;;;;;;8.53;7.62;;;;;;;17.34;42.06;99477.91;1720423;82;21109;-61
2021/10/21 00:15:16;;;;;;;8.43;7.53;;;;;;;17.36;42.09;99488.44;1713933;83;21908;-60
2021/10/21 00:17:43;;;;;;;9.70;7.37;;;;;;;17.34;42.08;99477.91;1713825;82;21031;-61
2021/10/21 00:20:11;;;;;;;8.53;6.97;;;;;;;17.34;42.08;99475.23;1727359;82;21089;-59
2021/10/21 00:22:38;;;;;;;7.97;7.08;;;;;;;17.34;42.10;99482.47;1743896;82;21045;-60
2021/10/21 00:25:06;;;;;;;7.90;7.10;;;;;;;17.33;42.10;99476.81;1721758;81;21022;-60
2021/10/21 00:27:32;;;;;;;7.53;6.80;;;;;;;17.32;42.10;99468.44;1732713;81;21088;-61
2021/10/21 00:29:59;;;;;;;8.68;6.70;;;;;;;17.33;42.12;99463.39;1743414;82;21042;-60
2021/10/21 00:32:25;;;;;;;8.23;7.42;;;;;;;17.32;42.12;99461.73;1739465;81;21101;-61
2021/10/21 00:34:54;;;;;;;7.65;6.75;;;;;;;17.32;42.12;99464.42;1725085;81;21054;-61
2021/10/21 00:37:20;;;;;;;9.03;7.65;;;;;;;17.31;42.13;99452.86;1728181;81;21096;-60
2021/10/21 00:39:46;;;;;;;8.00;7.20;;;;;;;17.30;42.15;99452.55;1741691;82;21148;-60
2021/10/21 00:42:12;;;;;;;8.75;7.40;;;;;;;17.30;42.14;99444.50;1721076;81;20984;-61
2021/10/21 00:44:39;;;;;;;8.53;7.20;;;;;;;17.29;42.17;99445.02;1737012;81;21086;-60
2021/10/21 00:47:05;;;;;;;8.83;7.90;;;;;;;17.28;42.15;99435.31;1737405;82;21101;-59
2021/10/21 00:49:32;;;;;;;7.83;6.90;;;;;;;17.29;42.18;99429.45;1733353;80;21093;-60
2021/10/21 00:51:58;;;;;;;8.23;7.35;;;;;;;17.28;42.18;99432.62;1737376;82;21314;-60
2021/10/21 00:54:24;;;;;;;8.85;7.95;;;;;;;17.28;42.19;99433.97;1720313;82;21070;-60
2021/10/21 00:56:52;;;;;;;8.35;7.45;;;;;;;17.27;42.19;99442.27;1737904;81;21536;-60
2021/10/21 00:59:18;;;;;;;8.60;7.50;;;;;;;17.27;42.21;99428.84;1720885;81;21054;-60
2021/10/21 01:01:45;;;;;;;7.87;7.08;;;;;;;17.26;42.21;99417.79;1737636;81;21078;-60
2021/10/21 01:04:11;;;;;;;8.38;6.83;;;;;;;17.26;42.21;99436.05;1738680;81;23166;-59
2021/10/21 01:06:41;;;;;;;7.53;6.55;;;;;;;17.13;42.22;99400.45;1736709;81;21033;-60
2021/10/21 01:09:10;;;;;;;9.50;7.45;;;;;;;17.23;42.24;99415.03;1736323;81;21082;-60
2021/10/21 01:11:41;;;;;;;8.50;7.70;;;;;;;17.24;42.23;99408.61;1730205;80;21538;-60
2021/10/21 01:14:08;;;;;;;8.25;7.25;;;;;;;17.23;42.24;99408.33;1727536;81;21043;-60
2021/10/21 01:16:39;;;;;;;9.18;7.55;;;;;;;17.23;42.24;99402.11;1715774;81;21129;-60
2021/10/21 01:19:19;;;;;;;8.83;7.90;;;;;;;17.22;42.25;99404.51;1727171;81;21071;-61
2021/10/21 01:21:47;;;;;;;9.55;7.75;;;;;;;17.22;42.29;99411.22;1729357;81;21577;-60
2021/10/21 01:24:14;;;;;;;7.12;6.20;;;;;;;17.21;42.28;99415.78;1740787;81;21086;-61
2021/10/21 01:26:48;;;;;;;8.15;7.33;;;;;;;17.20;42.30;99418.14;1737829;81;21046;-60
2021/10/21 01:29:15;;;;;;;8.55;7.65;;;;;;;17.19;42.30;99405.78;1735024;82;21786;-61
2021/10/21 01:31:42;;;;;;;9.85;7.60;;;;;;;17.19;42.33;99414.33;1728171;82;21038;-59
2021/10/21 01:34:10;;;;;;;7.12;6.35;;;;;;;17.18;42.36;99414.86;1741200;82;21609;-60
2021/10/21 01:36:37;;;;;;;8.68;6.40;;;;;;;17.17;42.34;99397.13;1738581;81;21065;-59
2021/10/21 01:39:07;;;;;;;8.40;7.37;;;;;;;17.17;42.37;99390.91;1739064;82;21034;-60
2021/10/21 01:41:33;;;;;;;8.10;7.30;;;;;;;17.16;42.38;99387.42;1740813;82;21127;-60
2021/10/21 01:44:00;;;;;;;8.30;7.28;;;;;;;17.16;42.37;99388.77;1743217;80;21077;-61
2021/10/21 01:46:26;;;;;;;10.60;7.30;;;;;;;17.16;42.38;99383.92;1742611;81;21089;-61
2021/10/21 01:48:53;;;;;;;7.53;6.72;;;;;;;17.15;42.40;99380.39;1734305;80;21010;-61
2021/10/21 01:51:19;;;;;;;8.08;7.28;;;;;;;17.15;42.39;99376.37;1755393;81;21766;-60
2021/10/21 01:53:45;;;;;;;8.25;7.37;;;;;;;17.13;42.39;99366.38;1754391;81;21132;-60
2021/10/21 01:56:12;;;;;;;8.95;7.65;;;;;;;17.14;42.41;99379.30;1745454;81;21041;-60
2021/10/21 01:58:40;;;;;;;8.03;7.08;;;;;;;17.15;42.40;99376.90;1745960;81;21085;-60
2021/10/21 02:01:06;;;;;;;7.22;6.42;;;;;;;17.13;42.42;99376.30;1752668;81;21064;-61
2021/10/21 02:03:33;;;;;;;7.97;6.83;;;;;;;17.11;42.46;99369.80;1743438;81;21086;-60
2021/10/21 02:05:59;;;;;;;8.13;7.12;;;;;;;17.12;42.43;99374.67;1753481;81;22080;-60
2021/10/21 02:08:25;;;;;;;8.00;7.00;;;;;;;17.11;42.46;99361.75;1749898;80;21034;-60
2021/10/21 02:10:51;;;;;;;8.00;7.20;;;;;;;17.12;42.47;99370.64;1738903;80;21074;-61
2021/10/21 02:13:18;;;;;;;8.53;7.33;;;;;;;17.10;42.48;99366.30;1726917;81;21049;-60
2021/10/21 02:15:44;;;;;;;8.28;7.47;;;;;;;17.10;42.47;99360.13;1726766;80;21557;-60
2021/10/21 02:18:12;;;;;;;8.25;7.22;;;;;;;17.10;42.48;99367.64;1727820;81;21002;-62
2021/10/21 02:20:39;;;;;;;8.53;7.00;;;;;;;17.09;42.48;99368.70;1745882;81;21026;-60
2021/10/21 02:23:05;;;;;;;7.92;6.85;;;;;;;17.09;42.49;99357.97;1727938;81;21069;-60
2021/10/21 02:25:31;;;;;;;8.60;7.40;;;;;;;17.08;42.50;99353.63;1740317;80;22359;-60
2021/10/21 02:27:58;;;;;;;8.20;7.40;;;;;;;17.08;42.49;99361.67;1742462;80;21057;-60
2021/10/21 02:30:24;;;;;;;7.97;7.03;;;;;;;17.08;42.49;99357.66;1737781;81;21111;-60
2021/10/21 02:32:50;;;;;;;8.05;6.92;;;;;;;17.08;42.51;99356.31;1743185;80;21006;-60
2021/10/21 02:35:17;;;;;;;8.53;7.62;;;;;;;17.07;42.51;99362.73;1731364;80;21597;-59
2021/10/21 02:37:43;;;;;;;8.53;7.10;;;;;;;17.07;42.52;99365.91;1726575;80;21073;-60
2021/10/21 02:40:12;;;;;;;8.13;6.95;;;;;;;17.07;42.55;99348.47;1730648;80;21037;-60
2021/10/21 02:42:39;;;;;;;10.40;7.25;;;;;;;17.06;42.52;99362.42;1741481;80;21565;-60
2021/10/21 02:45:07;;;;;;;7.95;7.17;;;;;;;17.06;42.56;99342.82;1746780;81;21069;-59
2021/10/21 02:47:33;;;;;;;7.37;6.62;;;;;;;17.04;42.53;99348.93;1752032;80;21033;-60
2021/10/21 02:50:00;;;;;;;9.58;7.78;;;;;;;17.04;42.57;99344.91;1753956;81;21021;-60
2021/10/21 02:52:26;;;;;;;8.75;7.22;;;;;;;17.04;42.58;99339.54;1747466;80;21105;-60
2021/10/21 02:54:52;;;;;;;9.28;7.60;;;;;;;17.04;42.58;99343.56;1756280;80;21096;-60
2021/10/21 02:57:19;;;;;;;8.08;7.25;;;;;;;17.03;42.58;99338.70;1731461;81;21517;-60
2021/10/21 02:59:45;;;;;;;8.43;7.10;;;;;;;17.03;42.60;99342.72;1739167;80;21992;-60
2021/10/21 03:02:11;;;;;;;10.30;7.62;;;;;;;17.03;42.59;99328.48;1734692;81;21072;-60
2021/10/21 03:04:38;;;;;;;8.93;7.45;;;;;;;17.01;42.60;99323.34;1741046;81;21060;-60
2021/10/21 03:07:04;;;;;;;7.70;6.65;;;;;;;17.01;42.66;99323.87;1749847;80;21065;-61
2021/10/21 03:09:30;;;;;;;8.93;7.53;;;;;;;17.01;42.63;99329.23;1728820;81;21513;-60
2021/10/21 03:11:57;;;;;;;8.38;7.35;;;;;;;17.01;42.62;99329.23;1734520;81;21096;-61
2021/10/21 03:14:23;;;;;;;7.95;7.15;;;;;;;17.00;42.63;99324.39;1730435;81;21133;-60
2021/10/21 03:16:49;;;;;;;10.18;7.35;;;;;;;16.99;42.63;99328.11;1742893;80;21029;-61
2021/10/21 03:19:16;;;;;;;8.15;7.28;;;;;;;16.99;42.64;99333.47;1748541;81;21770;-61
2021/10/21 03:21:42;;;;;;;8.45;7.08;;;;;;;16.99;42.68;99330.79;1745638;81;21034;-61
2021/10/21 03:24:08;;;;;;;8.45;7.53;;;;;;;16.98;42.69;99321.61;1726574;81;21104;-59
2021/10/21 03:26:35;;;;;;;8.73;7.45;;;;;;;16.97;42.69;99322.14;1744735;80;21533;-59
2021/10/21 03:29:01;;;;;;;9.48;7.53;;;;;;;16.97;42.68;99324.82;1726488;81;21064;-61
2021/10/21 03:31:31;;;;;;;10.75;7.50;;;;;;;16.96;42.69;99319.17;1747701;80;21029;-61
2021/10/21 03:33:57;;;;;;;9.53;7.50;;;;;;;16.97;42.68;99311.94;1744832;81;21104;-61
2021/10/21 03:36:24;;;;;;;8.33;7.22;;;;;;;16.95;42.70;99309.47;1729155;80;21037;-61
2021/10/21 03:38:51;;;;;;;9.58;7.67;;;;;;;16.95;42.71;99295.23;1727031;81;21010;-61
2021/10/21 03:41:18;;;;;;;9.33;7.58;;;;;;;16.95;42.72;99308.66;1740853;81;21046;-61
2021/10/21 03:43:45;;;;;;;8.40;7.00;;;;;;;16.95;42.71;99288.53;1749460;80;21124;-61
2021/10/21 03:46:11;;;;;;;8.15;7.30;;;;;;;16.93;42.74;99286.06;1754580;81;21133;-60
2021/10/21 03:48:38;;;;;;;8.70;7.40;;;;;;;16.92;42.74;99287.12;1752580;80;21054;-60
2021/10/21 03:51:04;;;;;;;10.20;8.08;;;;;;;16.92;42.74;99288.96;1752797;81;21037;-59
2021/10/21 03:53:31;;;;;;;8.58;7.70;;;;;;;16.92;42.78;99287.62;1753085;81;21010;-62
2021/10/21 03:55:57;;;;;;;8.18;6.97;;;;;;;16.92;42.79;99288.96;1749263;80;21064;-60
2021/10/21 03:58:23;;;;;;;8.50;7.12;;;;;;;16.91;42.79;99280.09;1741787;81;21686;-60
2021/10/21 04:00:49;;;;;;;8.58;7.12;;;;;;;16.90;42.79;99283.81;1744666;80;21603;-60
2021/10/21 04:03:16;;;;;;;8.60;6.90;;;;;;;16.89;42.81;99282.99;1745089;80;21030;-60
2021/10/21 04:05:43;;;;;;;8.70;7.80;;;;;;;16.89;42.82;99277.63;1749893;80;21007;-59
2021/10/21 04:08:09;;;;;;;9.25;7.72;;;;;;;16.88;42.82;99269.30;1744792;81;21113;-61
2021/10/21 04:10:36;;;;;;;8.98;7.45;;;;;;;16.87;42.81;99263.62;1729746;81;21034;-60
2021/10/21 04:13:02;;;;;;;7.80;6.95;;;;;;;16.87;42.83;99271.66;1729516;80;21041;-61
2021/10/21 04:15:29;;;;;;;7.65;6.70;;;;;;;16.86;42.84;99264.67;1747954;80;21491;-60
2021/10/21 04:17:55;;;;;;;8.65;7.30;;;;;;;16.87;42.83;99266.83;1745779;80;21050;-60
2021/10/21 04:20:22;;;;;;;8.00;7.20;;;;;;;16.86;42.84;99258.47;1742748;81;21147;-61
2021/10/21 04:22:49;;;;;;;9.40;7.45;;;;;;;16.85;42.85;99258.99;1746513;80;20997;-60
2021/10/21 04:25:16;;;;;;;8.15;7.35;;;;;;;16.85;42.87;99241.56;1754289;80;21039;-60
2021/10/21 04:27:43;;;;;;;9.13;7.28;;;;;;;16.85;42.91;99242.90;1734296;80;21097;-60
2021/10/21 04:30:11;;;;;;;9.40;7.35;;;;;;;16.83;42.89;99244.98;1754255;80;21072;-60
2021/10/21 04:32:37;;;;;;;8.88;7.70;;;;;;;16.82;42.92;99243.33;1756429;80;21155;-61
2021/10/21 04:35:05;;;;;;;7.95;7.15;;;;;;;16.82;42.92;99257.27;1735774;80;21089;-61
2021/10/21 04:37:32;;;;;;;8.65;7.58;;;;;;;16.81;42.92;99245.70;1738534;80;21068;-61
2021/10/21 04:39:58;;;;;;;8.33;7.47;;;;;;;16.81;42.94;99248.38;1736086;81;21100;-62
2021/10/21 04:42:24;;;;;;;9.03;7.90;;;;;;;16.81;42.93;99254.27;1749991;80;21529;-60
2021/10/21 04:44:51;;;;;;;8.55;7.50;;;;;;;16.81;42.97;99250.25;1751572;80;21111;-61
2021/10/21 04:47:17;;;;;;;8.75;7.17;;;;;;;16.80;42.96;99235.99;1745773;80;21034;-60
2021/10/21 04:49:44;;;;;;;8.23;7.30;;;;;;;16.81;42.94;99251.59;1742425;80;21101;-62
2021/10/21 04:52:12;;;;;;;8.03;7.20;;;;;;;16.79;42.95;99245.09;1753636;80;21621;-59
2021/10/21 04:54:39;;;;;;;9.08;7.65;;;;;;;16.79;42.95;99237.58;1755940;80;21565;-61
2021/10/21 04:57:06;;;;;;;10.80;7.17;;;;;;;16.78;42.99;99244.78;1751159;80;21217;-61
2021/10/21 04:59:32;;;;;;;7.95;7.20;;;;;;;16.78;43.00;99260.06;1749412;80;21055;-60
2021/10/21 05:01:58;;;;;;;10.48;8.30;;;;;;;16.78;42.99;99250.15;1736673;81;21009;-61
2021/10/21 05:04:26;;;;;;;8.85;7.22;;;;;;;16.77;42.99;99245.84;1745694;81;21070;-61
2021/10/21 05:06:52;;;;;;;7.50;6.70;;;;;;;16.77;43.00;99251.20;1749939;81;21581;-61
2021/10/21 05:09:18;;;;;;;8.48;7.67;;;;;;;16.77;43.00;99260.59;1732386;80;21108;-62
2021/10/21 05:11:45;;;;;;;9.20;7.50;;;;;;;16.77;43.01;99257.91;1741051;80;21022;-60
2021/10/21 05:14:11;;;;;;;8.60;7.70;;;;;;;16.79;43.01;99256.36;1741161;81;21057;-62
2021/10/21 05:16:39;;;;;;;9.63;7.85;;;;;;;16.78;43.01;99253.36;1735804;81;21049;-60
2021/10/21 05:19:07;;;;;;;8.13;7.05;;;;;;;16.77;43.01;99255.23;1734658;80;21050;-60
2021/10/21 05:21:33;;;;;;;7.40;6.70;;;;;;;16.78;43.01;99254.70;1740167;80;21957;-62
2021/10/21 05:24:00;;;;;;;9.25;7.65;;;;;;;16.78;43.02;99252.83;1755325;81;21045;-62
2021/10/21 05:26:26;;;;;;;8.68;7.80;;;;;;;16.79;43.01;99252.33;1743730;80;21128;-62
2021/10/21 05:28:52;;;;;;;9.00;7.97;;;;;;;16.80;43.01;99241.89;1752875;80;20998;-61
2021/10/21 05:31:18;;;;;;;8.90;7.20;;;;;;;16.80;43.00;99249.41;1753979;80;21070;-60
2021/10/21 05:33:45;;;;;;;8.80;7.67;;;;;;;16.81;43.00;99258.30;1745180;81;21131;-61
2021/10/21 05:36:11;;;;;;;8.30;7.17;;;;;;;16.81;43.00;99248.38;1730481;80;21038;-61
2021/10/21 05:38:38;;;;;;;8.58;7.67;;;;;;;16.82;43.00;99261.30;1734118;80;21136;-61
2021/10/21 05:41:04;;;;;;;9.03;8.03;;;;;;;16.82;42.99;99248.69;1752102;80;21521;-61
2021/10/21 05:43:31;;;;;;;8.75;7.95;;;;;;;16.83;43.00;99248.20;1751707;80;21027;-62
2021/10/21 05:45:57;;;;;;;7.67;6.97;;;;;;;16.84;42.98;99245.80;1727617;81;21130;-61
2021/10/21 05:48:24;;;;;;;8.85;7.95;;;;;;;16.85;42.97;99255.50;1736271;81;21027;-60
2021/10/21 05:50:50;;;;;;;9.50;8.60;;;;;;;16.86;42.95;99257.13;1728493;80;21578;-61
2021/10/21 05:53:16;;;;;;;9.65;8.65;;;;;;;16.87;42.96;99258.78;1727617;81;21026;-60
2021/10/21 05:55:43;;;;;;;9.45;7.70;;;;;;;16.86;42.94;99252.60;1726950;81;21491;-60
2021/10/21 05:58:12;;;;;;;8.53;7.72;;;;;;;16.88;42.96;99265.77;1732327;81;21067;-61
2021/10/21 06:00:38;;;;;;;8.65;7.28;;;;;;;16.88;42.96;99255.04;1730035;80;21070;-60
2021/10/21 06:03:04;;;;;;;8.40;7.60;;;;;;;16.89;42.96;99256.17;1737908;81;21038;-61
2021/10/21 06:05:31;;;;;;;9.28;8.38;;;;;;;16.89;42.95;99254.83;1740934;81;21351;-63
2021/10/21 06:07:59;;;;;;;8.80;7.90;;;;;;;16.90;42.94;99248.93;1739488;81;21581;-61
2021/10/21 06:10:26;;;;;;;8.78;7.87;;;;;;;16.91;42.94;99253.27;1737798;81;21122;-61
2021/10/21 06:12:52;;;;;;;9.35;8.20;;;;;;;16.93;42.92;99261.92;1730448;81;21061;-61
2021/10/21 06:15:19;;;;;;;9.18;8.10;;;;;;;16.94;42.92;99282.84;1736114;81;21014;-61
2021/10/21 06:17:48;;;;;;;8.53;7.72;;;;;;;16.94;42.92;99266.25;1730577;81;21612;-62
2021/10/21 06:20:15;;;;;;;11.57;9.03;;;;;;;16.95;42.91;99271.91;1731768;81;21538;-60
2021/10/21 06:22:42;;;;;;;8.58;7.67;;;;;;;16.97;42.88;99270.34;1731814;81;21143;-61
2021/10/21 06:25:10;;;;;;;9.25;8.18;;;;;;;16.97;42.88;99263.11;1729233;81;21054;-62
2021/10/21 06:27:37;;;;;;;9.23;7.92;;;;;;;16.98;42.89;99256.72;1727917;81;21487;-61
2021/10/21 06:30:06;;;;;;;9.45;8.25;;;;;;;17.01;42.87;99250.08;1724267;81;21545;-61
2021/10/21 06:32:33;;;;;;;8.75;7.85;;;;;;;17.03;42.84;99248.80;1741021;82;21026;-61
2021/10/21 06:34:59;;;;;;;8.05;7.25;;;;;;;17.05;42.80;99251.27;1739080;81;21145;-60
2021/10/21 06:37:26;;;;;;;8.55;7.15;;;;;;;17.05;42.78;99249.40;1706084;82;21069;-62
2021/10/21 06:39:55;;;;;;;8.20;6.83;;;;;;;17.07;42.76;99247.34;1728300;81;21495;-61
2021/10/21 06:42:23;;;;;;;8.55;7.53;;;;;;;17.09;42.72;99257.83;1730714;80;21031;-62
2021/10/21 06:44:52;;;;;;;8.93;8.03;;;;;;;17.12;42.70;99243.16;1738161;82;21109;-62
2021/10/21 06:47:18;;;;;;;9.55;7.40;;;;;;;17.14;42.69;99235.70;1730195;80;21123;-64
2021/10/21 06:49:44;;;;;;;8.05;7.25;;;;;;;17.16;42.67;99245.17;1741235;81;21057;-62
2021/10/21 06:52:11;;;;;;;8.78;7.87;;;;;;;17.19;42.64;99242.05;1747999;80;21505;-60
2021/10/21 06:54:37;;;;;;;8.65;7.83;;;;;;;17.20;42.60;99236.16;1744098;81;21064;-62
2021/10/21 06:57:03;;;;;;;9.63;8.18;;;;;;;17.24;42.57;99242.71;1727230;80;21072;-62
2021/10/21 06:59:30;;;;;;;8.25;7.08;;;;;;;17.26;42.55;99239.28;1742834;81;21177;-61
2021/10/21 07:01:57;;;;;;;10.82;7.78;;;;;;;17.28;42.54;99239.87;1747134;80;21045;-63
2021/10/21 07:04:25;;;;;;;8.18;7.37;;;;;;;17.30;42.52;99243.15;1729915;80;21026;-61
2021/10/21 07:06:51;;;;;;;8.35;7.58;;;;;;;17.32;42.47;99231.66;1742487;80;21058;-61
2021/10/21 07:09:17;;;;;;;8.50;7.58;;;;;;;17.34;42.49;99241.66;1737084;81;21132;-61
2021/10/21 07:11:44;;;;;;;7.78;6.83;;;;;;;17.37;42.46;99240.41;1734356;81;21649;-61
2021/10/21 07:14:10;;;;;;;9.80;8.28;;;;;;;17.39;42.41;99247.71;1738446;80;21113;-63
2021/10/21 07:16:36;;;;;;;8.08;7.28;;;;;;;17.42;42.40;99244.56;1730781;80;21010;-60
2021/10/21 07:19:03;;;;;;;8.45;7.35;;;;;;;17.45;42.41;99256.20;1729997;81;21022;-61
2021/10/21 07:21:29;;;;;;;9.00;7.37;;;;;;;17.47;42.43;99250.90;1728603;80;21549;-62
2021/10/21 07:23:56;;;;;;;8.10;6.92;;;;;;;17.51;42.43;99247.77;1727560;81;21114;-62
2021/10/21 07:26:22;;;;;;;8.53;7.62;;;;;;;17.53;42.42;99234.94;1749331;81;21045;-61
2021/10/21 07:28:49;;;;;;;7.95;7.25;;;;;;;17.55;42.43;99243.06;1749447;80;22238;-61
2021/10/21 07:31:18;;;;;;;8.03;7.22;;;;;;;17.58;42.41;99231.87;1754999;80;21057;-63
2021/10/21 07:33:43;;;;;;;9.05;8.15;;;;;;;17.60;42.41;99233.81;1734325;81;21579;-61
2021/10/21 07:36:11;;;;;;;8.05;7.17;;;;;;;17.63;42.41;99213.20;1751471;81;21110;-61
2021/10/21 07:38:37;;;;;;;8.15;7.33;;;;;;;17.65;42.41;99225.91;1751694;81;21049;-61
2021/10/21 07:41:03;;;;;;;8.00;7.10;;;;;;;17.67;42.39;99217.09;1750430;80;21168;-61
2021/10/21 07:43:33;;;;;;;8.08;7.28;;;;;;;17.69;42.39;99212.81;1741202;80;21057;-62
2021/10/21 07:45:59;;;;;;;8.15;7.35;;;;;;;17.71;42.38;99209.37;1734089;80;21026;-60
2021/10/21 07:48:25;;;;;;;8.53;7.70;;;;;;;17.74;42.34;99234.98;1739228;81;21770;-60
2021/10/21 07:50:52;;;;;;;11.48;8.35;;;;;;;17.76;42.34;99218.11;1728162;81;21112;-61
2021/10/21 07:53:18;;;;;;;6.97;6.28;;;;;;;17.77;42.32;99211.17;1747852;81;21135;-61
2021/10/21 07:55:44;;;;;;;10.60;7.75;;;;;;;17.79;42.27;99210.42;1729625;80;21050;-64
2021/10/21 07:58:11;;;;;;;8.45;7.55;;;;;;;17.81;42.29;99196.73;1736079;80;21021;-61
2021/10/21 08:00:38;;;;;;;7.30;6.60;;;;;;;17.83;42.25;99196.83;1733100;80;21807;-62
2021/10/21 08:03:05;;;;;;;7.75;7.00;;;;;;;17.86;42.24;99200.41;1732778;81;21486;-61
2021/10/21 08:05:33;;;;;;;7.53;6.60;;;;;;;17.88;42.22;99200.19;1738188;80;21076;-61
2021/10/21 08:08:03;;;;;;;8.78;6.97;;;;;;;17.90;42.22;99187.88;1730411;81;21077;-60
2021/10/21 08:10:32;;;;;;;8.33;7.47;;;;;;;17.91;42.22;99182.27;1735182;80;22559;-61
2021/10/21 08:12:59;;;;;;;7.70;6.90;;;;;;;17.94;42.20;99183.67;1729952;81;21089;-61
2021/10/21 08:15:26;;;;;;;7.70;6.70;;;;;;;17.95;42.18;99186.14;1730127;80;21029;-62
2021/10/21 08:17:54;;;;;;;7.83;7.03;;;;;;;17.97;42.20;99167.10;1727310;81;21529;-62
2021/10/21 08:20:23;;;;;;;8.05;6.90;;;;;;;17.99;42.18;99170.37;1740772;81;21074;-62
2021/10/21 08:22:49;;;;;;;7.62;6.83;;;;;;;18.00;42.19;99159.91;1755505;80;21096;-62
2021/10/21 08:25:18;;;;;;;7.90;7.10;;;;;;;18.02;42.19;99170.73;1750379;80;21593;-62
2021/10/21 08:27:44;;;;;;;8.43;7.53;;;;;;;18.03;42.17;99151.39;1752216;81;21069;-61
2021/10/21 08:30:12;;;;;;;8.20;7.30;;;;;;;18.05;42.16;99147.41;1747126;80;21018;-61
2021/10/21 08:32:41;;;;;;;7.67;6.97;;;;;;;18.07;42.12;99145.84;1749491;81;21090;-61
2021/10/21 08:35:07;;;;;;;7.45;6.75;;;;;;;18.10;42.14;99153.45;1750508;80;21057;-61
2021/10/21 08:37:35;;;;;;;7.72;6.97;;;;;;;18.14;42.14;99149.25;1754075;81;21140;-62
2021/10/21 08:40:03;;;;;;;7.75;7.05;;;;;;;18.17;42.16;99154.68;1753417;80;21002;-61
2021/10/21 08:42:29;;;;;;;8.45;6.87;;;;;;;18.20;42.12;99138.09;1729316;80;21104;-62
2021/10/21 08:44:56;;;;;;;8.68;7.40;;;;;;;18.24;42.10;99132.02;1726715;81;21121;-62
2021/10/21 08:47:23;;;;;;;8.25;7.17;;;;;;;18.28;42.06;99124.30;1726581;81;21029;-62
2021/10/21 08:49:49;;;;;;;7.62;6.83;;;;;;;18.32;41.98;99117.94;1744988;80;22342;-62
2021/10/21 08:52:16;;;;;;;8.10;7.30;;;;;;;18.37;41.75;99114.00;1739570;81;21065;-63
2021/10/21 08:54:42;;;;;;;8.63;7.37;;;;;;;18.42;41.71;99122.19;1734323;81;21077;-61
2021/10/21 08:57:12;;;;;;;8.48;7.67;;;;;;;18.47;41.68;99109.68;1736092;80;21092;-60
2021/10/21 08:59:46;;;;;;;8.15;6.70;;;;;;;18.54;41.73;99118.14;1752321;80;21073;-61
2021/10/21 09:02:19;;;;;;;8.65;7.37;;;;;;;18.58;41.60;99109.39;1755068;81;21613;-61
2021/10/21 09:10:09;;;;;;;7.40;6.25;;;;;;;18.73;41.48;99087.35;1736962;81;21550;-61
2021/10/21 09:12:44;;;;;;;7.28;6.50;;;;;;;18.80;41.43;99096.16;1746740;80;21636;-61
2021/10/21 09:15:15;;;;;;;9.40;6.72;;;;;;;18.88;41.49;99089.58;1750822;81;21481;-61
2021/10/21 09:17:44;;;;;;;6.90;6.28;;;;;;;18.94;41.57;99081.89;1746632;80;21503;-61
2021/10/21 09:20:39;;;;;;;8.95;8.15;;;;;;;18.99;41.43;99080.66;1734860;81;21600;-62
2021/10/21 09:23:09;;;;;;;7.60;6.85;;;;;;;19.02;41.37;99065.36;1737699;81;21590;-61
2021/10/21 09:25:36;;;;;;;7.83;7.03;;;;;;;19.08;41.33;99070.31;1742491;81;21085;-61
2021/10/21 09:28:07;;;;;;;7.92;7.12;;;;;;;19.15;41.31;99062.11;1750992;80;21791;-61
2021/10/21 09:30:34;;;;;;;6.78;6.12;;;;;;;19.22;41.33;99050.67;1717846;82;21072;-61
2021/10/21 09:33:12;;;;;;;8.28;6.87;;;;;;;19.30;41.42;99054.85;1726640;80;21066;-62
2021/10/21 09:35:37;;;;;;;7.42;6.67;;;;;;;19.36;41.30;99058.73;1755599;81;21487;-61
2021/10/21 09:38:03;;;;;;;8.70;6.87;;;;;;;19.46;41.26;99056.74;1739038;81;21030;-61
2021/10/21 09:40:34;;;;;;;8.18;6.58;;;;;;;19.54;41.25;99048.25;1751150;80;21965;-62
2021/10/21 09:43:03;;;;;;;7.65;6.92;;;;;;;19.62;41.16;99040.30;1749228;80;21039;-61
2021/10/21 09:45:38;;;;;;;6.90;6.20;;;;;;;19.69;41.04;99036.11;1731799;80;21089;-68
2021/10/21 09:48:06;;;;;;;6.70;6.10;;;;;;;19.75;40.97;99035.16;1729050;81;21083;-69
2021/10/21 09:50:45;;;;;;;7.50;6.42;;;;;;;19.84;40.93;99033.69;1741766;80;21604;-70
2021/10/21 09:53:28;;;;;;;8.20;7.22;;;;;;;19.91;40.90;99036.20;1747089;80;21073;-69
2021/10/21 09:56:08;;;;;;;7.42;6.72;;;;;;;19.99;40.88;99020.95;1745374;80;21518;-69
2021/10/21 09:58:36;;;;;;;7.67;6.75;;;;;;;20.07;40.82;99024.59;1752408;81;21641;-68
2021/10/21 10:01:16;;;;;;;6.62;6.03;;;;;;;20.16;40.79;99024.44;1749774;80;21533;-71
2021/10/21 10:03:46;;;;;;;6.90;6.20;;;;;;;20.24;40.76;99011.06;1745608;80;21064;-69
2021/10/21 10:06:18;;;;;;;9.10;6.42;;;;;;;20.34;40.72;99009.03;1746837;80;21137;-73
2021/10/21 10:08:46;;;;;;;7.92;7.17;;;;;;;20.42;40.71;99009.97;1713250;82;21491;-70
2021/10/21 10:11:21;;;;;;;8.48;6.40;;;;;;;20.52;40.73;99004.69;1754344;80;21041;-69
2021/10/21 10:13:54;;;;;;;7.17;6.47;;;;;;;20.61;40.64;98996.47;1752466;81;21581;-70
2021/10/21 10:16:24;;;;;;;;;;;;;;;20.71;40.54;99003.06;1731999;81;20994;-68
2021/10/21 10:18:51;;;;;;;6.95;5.75;;;;;;;20.80;40.47;98975.88;1726470;81;21149;-69
2021/10/21 10:21:25;;;;;;;6.28;5.70;;;;;;;20.86;40.39;98980.80;1729213;81;21050;-69
2021/10/21 10:24:02;;;;;;;6.95;6.25;;;;;;;20.93;40.37;98978.72;1749094;81;21049;-68
2021/10/21 10:26:49;;;;;;;6.65;5.80;;;;;;;21.05;40.36;98969.11;1732992;80;21046;-68
2021/10/21 10:29:18;;;;;;;6.67;5.97;;;;;;;21.16;40.32;98954.09;1743845;81;21061;-68
2021/10/21 10:31:49;;;;;;;8.98;6.45;;;;;;;21.26;40.19;98962.81;1725813;81;21129;-69
2021/10/21 10:34:40;;;;;;;7.42;5.83;;;;;;;21.35;40.03;98941.02;1755483;80;21092;-69
2021/10/21 10:37:21;;;;;;;7.08;6.47;;;;;;;21.44;39.94;98933.81;1735056;80;21049;-70
2021/10/21 10:39:57;;;;;;;7.70;6.40;;;;;;;21.53;39.81;98934.97;1733442;81;21026;-68
2021/10/21 10:42:40;;;;;;;6.87;6.17;;;;;;;21.62;39.78;98947.47;1730977;80;21057;-69
2021/10/21 10:45:08;;;;;;;7.08;5.95;;;;;;;21.67;39.69;98940.73;1733223;81;21179;-68
2021/10/21 10:47:50;;;;;;;7.15;5.37;;;;;;;21.72;39.54;98924.55;1720062;82;21019;-69
2021/10/21 10:50:29;;;;;;;6.55;5.62;;;;;;;21.73;39.46;98937.81;1727931;80;21053;-69
2021/10/21 10:53:05;;;;;;;6.65;5.95;;;;;;;21.75;39.43;98928.06;1726214;82;21560;-68
2021/10/21 10:55:50;;;;;;;6.78;6.08;;;;;;;21.75;39.44;98915.39;1731851;80;21073;-69
2021/10/21 10:58:26;;;;;;;7.12;5.85;;;;;;;21.77;39.44;98912.43;1742965;82;21043;-69
2021/10/21 11:02:28;;;;;;;7.17;6.47;;;;;;;21.90;39.47;98900.31;1855578;76;22956;-70
2021/10/21 11:04:58;;;;;;;7.20;5.97;;;;;;;21.93;39.50;98909.27;1823916;77;21040;-68
2021/10/21 11:07:30;;;;;;;7.87;6.28;;;;;;;21.99;39.46;98889.27;1819671;77;21204;-68
2021/10/21 11:10:29;;;;;;;7.75;6.33;;;;;;;22.05;39.34;98892.27;1822623;77;21000;-68
2021/10/21 11:12:53;;;;;;;6.08;5.45;;;;;;;22.11;39.26;98886.34;1823123;77;21009;-70
2021/10/21 11:15:35;;;;;;;6.53;5.92;;;;;;;22.15;39.22;98890.14;1760728;79;21080;-70
2021/10/21 11:18:03;;;;;;;6.12;5.55;;;;;;;22.19;39.15;98879.90;1819016;77;21064;-69
2021/10/21 11:20:37;;;;;;;6.83;6.00;;;;;;;22.25;39.12;98893.45;1817667;77;21590;-68
2021/10/21 11:23:27;;;;;;;6.58;5.90;;;;;;;22.29;39.08;98869.68;1816645;77;20978;-69
2021/10/21 11:26:06;;;;;;;7.05;6.37;;;;;;;22.33;39.02;98889.70;1810537;78;21559;-69
2021/10/21 11:28:30;;;;;;;6.28;5.78;;;;;;;22.38;38.98;98872.66;1810099;77;21048;-69
2021/10/21 11:30:59;;;;;;;6.45;5.92;;;;;;;22.43;38.93;98889.47;1814943;77;21557;-71
2021/10/21 11:33:26;;;;;;;6.60;5.80;;;;;;;22.46;38.94;98868.08;1791426;78;21175;-70
2021/10/21 11:35:52;;;;;;;7.42;5.70;;;;;;;22.48;38.89;98876.73;1777676;79;21172;-61
2021/10/21 11:38:20;;;;;;;6.87;6.15;;;;;;;22.49;38.89;98855.92;1771321;79;21076;-64
2021/10/21 11:40:53;;;;;;;6.28;5.67;;;;;;;22.50;38.84;98882.73;1767539;79;21120;-66
2021/10/21 11:43:35;;;;;;;5.90;5.40;;;;;;;22.50;38.82;98866.48;1770380;79;21067;-62
2021/10/21 11:45:59;;;;;;;6.33;5.70;;;;;;;22.49;38.78;98860.78;1770237;79;21115;-63